Ana Sayfa
METAR-TAF:

METAR-TAF

Havaalanları :

Portage Glacier, Alaska, Amerika Birleşik Devletleri

Enlem: 60-47N, Boylam: 148-50W, yükseklik: 29 m

Güncel hava durumu gözlemi

Rapor saat 20:53 UTC de 1 saat ve 4 dakika önce yapıldı.
Rüzgar güney/güneydoğudan 9 kt ve 16 kt'a kadar ani rüzgarlar
Sıcaklık 11°C
Nem 37%
Basınç 1013 hPa
Görüş mesafesi: 16.1 km
Açık gökyüzü

METAR: PATO 202053Z AUTO 15009G16KT 10SM CLR 11/M03 A2990 RMK AO2 SLP126 T01061033 58006 TSNO

Saat: 13:57 (21:57 UTC)


TAF: eksik

4.000'den fazla havaalanı için hava durumu gözlemleri ve tahminleri (METAR ve TAF raporları).

Kullanılabilir istasyonlar harita üzerinde sarı ve kırmızı noktalarla gösterilir.

İstasyonun adını görmek için fareyi noktanın üzerinde gezdirin.

Sonrasında hava gözlem ve tahminlerini görmek için tıklayın.

Haritayı değiştirmek için: yaklaştırmak için siyah artı işaretli yeşil düğmeye ve uzaklaştırmak için de eksi işaretli düğmeye hızla tıklayın; bitişik haritalar için yeşil okları kullanın.


METAR-TAF: